createdAt,value
2022-08-11T00:01:54.168Z,21.39
2022-08-11T00:04:25.414Z,21.18
2022-08-11T00:06:53.839Z,21.37
2022-08-11T00:09:24.227Z,21.27
2022-08-11T00:11:52.902Z,21.35
2022-08-11T00:14:21.865Z,21.34
2022-08-11T00:16:56.797Z,21.55
2022-08-11T00:20:12.477Z,21.67
2022-08-11T00:22:21.915Z,21.19
2022-08-11T00:24:54.793Z,21.36
2022-08-11T00:27:32.851Z,21.56
2022-08-11T00:30:00.646Z,21.35
2022-08-11T00:32:29.977Z,21.59
2022-08-11T00:35:51.864Z,21.63
2022-08-11T00:37:50.453Z,21.85
2022-08-11T00:40:21.060Z,21.59
2022-08-11T00:42:57.826Z,22.03
2022-08-11T00:45:28.494Z,21.49
2022-08-11T00:48:03.810Z,21.76
2022-08-11T00:50:42.712Z,21.93
2022-08-11T00:53:26.141Z,21.66
2022-08-11T00:56:27.219Z,21.66
2022-08-11T00:59:35.013Z,22.25
2022-08-11T01:02:16.777Z,22.31
2022-08-11T01:04:57.595Z,22.08
2022-08-11T01:07:59.090Z,21.87
2022-08-11T01:10:45.728Z,22.32
2022-08-11T01:13:20.069Z,22.12
2022-08-11T01:16:11.879Z,22.15
2022-08-11T01:19:04.574Z,22.28
2022-08-11T01:22:03.613Z,22.21
2022-08-11T01:24:46.227Z,22.07
2022-08-11T01:27:40.782Z,22.48
2022-08-11T01:30:23.579Z,22.46
2022-08-11T01:33:09.074Z,22.13
2022-08-11T01:35:48.734Z,22.59
2022-08-11T01:38:33.580Z,22.39
2022-08-11T01:41:16.446Z,22.70
2022-08-11T01:44:27.618Z,22.65
2022-08-11T01:47:03.931Z,22.67
2022-08-11T01:50:08.057Z,22.59
2022-08-11T01:52:31.052Z,22.47
2022-08-11T01:55:14.214Z,23.15
2022-08-11T01:57:47.519Z,23.00
2022-08-11T02:00:17.494Z,22.69
2022-08-11T02:02:54.130Z,22.95
2022-08-11T02:05:27.696Z,22.70
2022-08-11T02:08:06.237Z,23.29
2022-08-11T02:11:05.105Z,22.78
2022-08-11T02:13:41.476Z,22.82
2022-08-11T02:16:17.969Z,23.33
2022-08-11T02:19:07.986Z,23.22
2022-08-11T02:22:00.408Z,22.99
2022-08-11T02:24:31.882Z,23.68
2022-08-11T02:27:03.395Z,23.48
2022-08-11T02:29:34.475Z,23.43
2022-08-11T02:32:30.189Z,23.53
2022-08-11T02:35:05.230Z,23.42
2022-08-11T02:37:38.433Z,23.45
2022-08-11T02:40:32.494Z,23.85
2022-08-11T02:43:10.652Z,23.54
2022-08-11T02:45:47.413Z,23.69
2022-08-11T02:48:42.829Z,23.75
2022-08-11T02:51:22.326Z,23.92
2022-08-11T02:53:58.216Z,23.89
2022-08-11T02:56:38.148Z,24.03
2022-08-11T02:59:26.597Z,24.10
2022-08-11T03:02:05.194Z,24.40
2022-08-11T03:04:38.865Z,24.12
2022-08-11T03:07:28.179Z,24.46
2022-08-11T03:10:04.554Z,24.33
2022-08-11T03:12:53.680Z,24.66
2022-08-11T03:15:42.066Z,24.61
2022-08-11T03:18:17.666Z,24.19
2022-08-11T03:20:48.604Z,24.54
2022-08-11T03:23:20.623Z,24.52
2022-08-11T03:25:52.810Z,24.86
2022-08-11T03:28:28.539Z,24.40
2022-08-11T03:31:02.307Z,24.49
2022-08-11T03:33:49.301Z,24.83
2022-08-11T03:36:24.294Z,24.78
2022-08-11T03:39:01.160Z,25.07
2022-08-11T03:42:02.114Z,24.62
2022-08-11T03:44:44.669Z,24.88
2022-08-11T03:47:30.033Z,24.99
2022-08-11T03:50:04.745Z,25.42
2022-08-11T03:52:39.433Z,25.21
2022-08-11T03:55:11.548Z,25.24
2022-08-11T03:58:05.849Z,25.44
2022-08-11T04:01:06.062Z,25.44
2022-08-11T04:03:54.690Z,25.36
2022-08-11T04:06:37.602Z,25.46
2022-08-11T04:09:32.211Z,25.46
2022-08-11T04:12:35.302Z,25.58
2022-08-11T04:15:41.181Z,25.76
2022-08-11T04:18:32.511Z,25.31
2022-08-11T04:21:10.560Z,25.67
2022-08-11T04:24:33.071Z,25.63
2022-08-11T04:27:14.124Z,25.64
2022-08-11T04:30:04.015Z,25.97
2022-08-11T04:32:46.127Z,25.52
2022-08-11T04:35:34.782Z,26.12
2022-08-11T04:38:32.567Z,25.72
2022-08-11T04:41:21.288Z,25.90
2022-08-11T04:44:12.154Z,26.14
2022-08-11T04:46:57.981Z,26.28
2022-08-11T04:50:02.156Z,25.90
2022-08-11T04:52:59.145Z,26.38
2022-08-11T04:56:00.301Z,26.29
2022-08-11T04:58:59.855Z,26.46
2022-08-11T05:01:42.357Z,26.33
2022-08-11T05:04:31.562Z,26.19
2022-08-11T05:07:13.620Z,26.38
2022-08-11T05:09:52.370Z,26.18
2022-08-11T05:12:29.752Z,26.58
2022-08-11T05:15:16.179Z,26.83
2022-08-11T05:18:04.135Z,26.77
2022-08-11T05:20:50.208Z,26.58
2022-08-11T05:23:38.369Z,26.41
2022-08-11T05:26:47.502Z,26.49
2022-08-11T05:29:58.707Z,26.45
2022-08-11T05:32:46.610Z,26.97
2022-08-11T05:35:28.327Z,27.00
2022-08-11T05:38:20.540Z,27.20
2022-08-11T05:41:10.396Z,27.31
2022-08-11T05:44:19.682Z,26.97
2022-08-11T05:47:07.895Z,26.94
2022-08-11T05:49:53.525Z,26.93
2022-08-11T05:52:41.707Z,26.66
2022-08-11T05:55:28.431Z,26.81
2022-08-11T05:57:57.520Z,26.54
2022-08-11T06:00:25.763Z,26.43
2022-08-11T06:02:55.951Z,26.35
2022-08-11T06:05:33.070Z,26.06
2022-08-11T06:08:07.239Z,26.27
2022-08-11T06:10:36.277Z,26.36
2022-08-11T06:13:04.994Z,26.23
2022-08-11T06:15:34.143Z,26.14
2022-08-11T06:18:04.346Z,26.19
2022-08-11T06:20:37.489Z,25.96
2022-08-11T06:23:06.473Z,26.27
2022-08-11T06:25:36.072Z,25.66
2022-08-11T06:28:05.020Z,26.15
2022-08-11T06:30:39.914Z,26.03
2022-08-11T06:33:12.055Z,26.17
2022-08-11T06:35:47.671Z,26.09
2022-08-11T06:38:20.536Z,25.82
2022-08-11T06:41:06.050Z,25.85
2022-08-11T06:43:43.902Z,25.57
2022-08-11T06:46:29.564Z,25.77
2022-08-11T06:49:02.442Z,25.63
2022-08-11T06:51:32.710Z,25.64
2022-08-11T06:54:04.283Z,25.16
2022-08-11T06:57:06.670Z,25.30
2022-08-11T06:59:59.062Z,25.41
2022-08-11T07:02:31.290Z,24.82
2022-08-11T07:05:04.378Z,24.98
2022-08-11T07:08:34.779Z,24.74
2022-08-11T07:11:21.585Z,24.65
2022-08-11T07:14:08.674Z,24.56
2022-08-11T07:16:40.662Z,24.84
2022-08-11T07:19:26.275Z,24.89
2022-08-11T07:22:14.323Z,24.45
2022-08-11T07:25:03.564Z,24.48
2022-08-11T07:27:55.212Z,24.13
2022-08-11T07:30:23.516Z,24.29
2022-08-11T07:32:52.443Z,23.77
2022-08-11T07:35:23.313Z,23.94
2022-08-11T07:38:01.549Z,23.63
2022-08-11T07:40:31.582Z,23.48
2022-08-11T07:43:01.115Z,23.46
2022-08-11T07:45:46.956Z,23.19
2022-08-11T07:48:33.589Z,23.15
2022-08-11T07:51:19.821Z,23.44
2022-08-11T07:53:58.700Z,22.55
2022-08-11T07:56:54.473Z,22.74
2022-08-11T08:00:00.379Z,22.61
2022-08-11T08:02:57.555Z,22.74
2022-08-11T08:05:43.542Z,22.68
2022-08-11T08:08:29.526Z,22.68
2022-08-11T08:11:16.601Z,22.24
2022-08-11T08:14:02.566Z,22.31
2022-08-11T08:16:48.792Z,22.36
2022-08-11T08:19:18.541Z,22.05
2022-08-11T08:21:46.822Z,21.86
2022-08-11T08:24:15.863Z,21.65
2022-08-11T08:27:01.097Z,21.38
2022-08-11T08:29:48.020Z,21.62
2022-08-11T08:32:18.916Z,21.37
2022-08-11T08:34:48.066Z,21.34
2022-08-11T08:37:45.549Z,21.33
2022-08-11T08:40:08.834Z,21.18
2022-08-11T08:42:44.888Z,20.88
2022-08-11T08:45:16.046Z,21.28
2022-08-11T08:47:51.161Z,21.10
2022-08-11T08:50:27.505Z,21.07
2022-08-11T08:52:59.535Z,20.85
2022-08-11T08:55:28.803Z,20.82
2022-08-11T08:58:00.899Z,20.43
2022-08-11T09:00:39.065Z,20.47
2022-08-11T09:03:36.045Z,20.22
2022-08-11T09:05:55.918Z,20.42
2022-08-11T09:08:24.630Z,20.42
2022-08-11T09:11:13.944Z,19.79
2022-08-11T09:13:44.919Z,20.01
2022-08-11T09:16:12.984Z,19.85
2022-08-11T09:18:44.737Z,19.70
2022-08-11T09:21:14.823Z,19.63
2022-08-11T09:24:26.495Z,19.40
2022-08-11T09:27:01.311Z,19.29
2022-08-11T09:29:33.479Z,18.94
2022-08-11T09:32:01.730Z,18.66
2022-08-11T09:34:29.850Z,18.69
2022-08-11T09:37:53.371Z,19.11
2022-08-11T09:40:37.067Z,18.56
2022-08-11T09:43:24.057Z,18.45
2022-08-11T09:45:54.336Z,18.02
2022-08-11T09:48:23.355Z,18.28
2022-08-11T09:50:52.188Z,18.63
2022-08-11T09:53:36.218Z,18.49
2022-08-11T09:56:21.034Z,18.46
2022-08-11T09:58:49.087Z,18.55
2022-08-11T10:01:28.260Z,18.12
2022-08-11T10:04:01.609Z,18.27
2022-08-11T10:06:48.540Z,17.87
2022-08-11T10:09:25.255Z,17.65
2022-08-11T10:11:55.598Z,18.07
2022-08-11T10:14:44.740Z,17.38
2022-08-11T10:17:16.256Z,17.61
2022-08-11T10:19:48.874Z,17.65
2022-08-11T10:22:50.428Z,17.54
2022-08-11T10:25:35.633Z,17.74
2022-08-11T10:28:30.830Z,17.32
2022-08-11T10:31:20.132Z,17.20
2022-08-11T10:34:01.584Z,17.08
2022-08-11T10:36:30.580Z,17.19
2022-08-11T10:38:59.027Z,16.69
2022-08-11T10:42:06.467Z,17.28
2022-08-11T10:44:37.307Z,16.99
2022-08-11T10:47:23.361Z,16.92
2022-08-11T10:50:13.723Z,16.81
2022-08-11T10:52:59.675Z,16.31
2022-08-11T10:55:45.419Z,16.58
2022-08-11T10:58:31.823Z,16.54
2022-08-11T11:01:00.795Z,16.39
2022-08-11T11:03:30.303Z,15.83
2022-08-11T11:06:27.502Z,16.39
2022-08-11T11:08:58.868Z,15.87
2022-08-11T11:11:45.063Z,16.20
2022-08-11T11:14:32.944Z,16.39
2022-08-11T11:17:20.692Z,16.17
2022-08-11T11:19:51.165Z,16.23
2022-08-11T11:22:40.790Z,15.61
2022-08-11T11:25:16.762Z,16.07
2022-08-11T11:27:52.880Z,15.64
2022-08-11T11:30:20.959Z,16.06
2022-08-11T11:32:59.202Z,15.34
2022-08-11T11:35:31.912Z,15.29
2022-08-11T11:38:04.908Z,15.22
2022-08-11T11:40:34.240Z,15.38
2022-08-11T11:43:02.488Z,15.01
2022-08-11T11:45:30.688Z,15.14
2022-08-11T11:50:58.457Z,14.88
2022-08-11T11:53:28.261Z,15.53
2022-08-11T11:55:58.569Z,15.03
2022-08-11T11:58:45.233Z,15.13
2022-08-11T12:01:17.523Z,15.32
2022-08-11T12:03:46.699Z,15.18
2022-08-11T12:06:15.413Z,14.61
2022-08-11T12:08:45.652Z,15.22
2022-08-11T12:11:31.773Z,14.45
2022-08-11T12:14:01.501Z,14.86
2022-08-11T12:16:34.668Z,14.30
2022-08-11T12:19:05.071Z,14.38
2022-08-11T12:21:33.502Z,14.95
2022-08-11T12:24:21.020Z,14.73
2022-08-11T12:27:16.453Z,14.97
2022-08-11T12:29:47.440Z,14.82
2022-08-11T12:32:19.010Z,14.79
2022-08-11T12:34:47.024Z,14.49
2022-08-11T12:37:14.947Z,13.94
2022-08-11T12:40:16.811Z,14.08
2022-08-11T12:43:37.121Z,14.04
2022-08-11T12:46:09.124Z,14.49
2022-08-11T12:48:59.536Z,14.03
2022-08-11T12:52:11.064Z,14.63
2022-08-11T12:54:42.557Z,14.58
2022-08-11T12:57:36.523Z,14.54
2022-08-11T13:00:23.683Z,14.08
2022-08-11T13:03:09.618Z,14.49
2022-08-11T13:05:44.808Z,13.86
2022-08-11T13:08:15.399Z,14.14
2022-08-11T13:11:01.444Z,14.00
2022-08-11T13:13:54.099Z,14.10
2022-08-11T13:16:20.814Z,13.45
2022-08-11T13:18:49.138Z,13.92
2022-08-11T13:21:20.180Z,13.81
2022-08-11T13:24:01.323Z,14.22
2022-08-11T13:26:43.067Z,13.58
2022-08-11T13:29:19.149Z,13.62
2022-08-11T13:31:47.402Z,13.79
2022-08-11T13:34:16.314Z,14.03
2022-08-11T13:36:44.716Z,13.95
2022-08-11T13:39:13.570Z,13.35
2022-08-11T13:41:45.188Z,13.35
2022-08-11T13:44:15.815Z,13.28
2022-08-11T13:46:47.980Z,13.45
2022-08-11T13:49:22.100Z,12.98
2022-08-11T13:51:50.407Z,13.09
2022-08-11T13:54:18.878Z,12.98
2022-08-11T13:56:48.078Z,13.48
2022-08-11T13:59:17.184Z,13.02
2022-08-11T14:02:22.551Z,13.08
2022-08-11T14:04:40.488Z,13.18
2022-08-11T14:07:10.218Z,13.41
2022-08-11T14:09:39.091Z,13.55
2022-08-11T14:12:27.474Z,13.65
2022-08-11T14:15:05.856Z,13.28
2022-08-11T14:17:48.489Z,13.20
2022-08-11T14:20:38.296Z,13.01
2022-08-11T14:23:06.249Z,13.02
2022-08-11T14:26:00.717Z,13.05
2022-08-11T14:28:31.849Z,12.91
2022-08-11T14:31:02.753Z,13.43
2022-08-11T14:33:58.410Z,13.04
2022-08-11T14:36:26.024Z,12.94
2022-08-11T14:38:55.004Z,13.45
2022-08-11T14:42:11.464Z,12.87
2022-08-11T14:44:49.442Z,13.24
2022-08-11T14:47:24.255Z,12.93
2022-08-11T14:50:09.468Z,12.73
2022-08-11T14:52:45.106Z,13.26
2022-08-11T14:55:31.422Z,12.86
2022-08-11T14:57:59.980Z,12.86
2022-08-11T15:00:27.827Z,13.32
2022-08-11T15:03:10.945Z,12.88
2022-08-11T15:05:40.786Z,12.97
2022-08-11T15:08:10.459Z,13.00
2022-08-11T15:10:38.416Z,13.42
2022-08-11T15:13:07.026Z,13.67
2022-08-11T15:15:52.578Z,13.06
2022-08-11T15:18:24.132Z,13.28
2022-08-11T15:21:10.200Z,13.14
2022-08-11T15:23:57.280Z,13.16
2022-08-11T15:26:43.408Z,13.70
2022-08-11T15:29:30.824Z,13.22
2022-08-11T15:32:16.651Z,13.26
2022-08-11T15:35:07.799Z,13.61
2022-08-11T15:37:36.267Z,13.73
2022-08-11T15:40:37.293Z,13.23
2022-08-11T15:43:29.146Z,13.12
2022-08-11T15:46:02.452Z,13.69
2022-08-11T15:48:35.408Z,13.64
2022-08-11T15:51:09.268Z,13.35
2022-08-11T15:53:41.726Z,13.29
2022-08-11T15:56:11.777Z,13.40
2022-08-11T15:59:40.635Z,13.71
2022-08-11T16:02:06.269Z,13.81
2022-08-11T16:04:36.313Z,13.81
2022-08-11T16:07:06.261Z,13.37
2022-08-11T16:09:46.035Z,13.72
2022-08-11T16:12:18.620Z,13.90
2022-08-11T16:15:04.873Z,13.39
2022-08-11T16:17:35.277Z,13.92
2022-08-11T16:20:05.304Z,13.85
2022-08-11T16:22:37.940Z,13.66
2022-08-11T16:27:04.810Z,13.67
2022-08-11T16:27:59.063Z,13.43
2022-08-11T16:30:28.307Z,13.83
2022-08-11T16:33:00.138Z,13.87
2022-08-11T16:36:06.969Z,13.57
2022-08-11T16:38:39.181Z,13.67
2022-08-11T16:41:11.631Z,13.97
2022-08-11T16:44:05.975Z,13.51
2022-08-11T16:46:52.653Z,13.80
2022-08-11T16:49:24.923Z,14.02
2022-08-11T16:51:53.039Z,13.99
2022-08-11T16:54:21.276Z,13.56
2022-08-11T16:56:50.812Z,13.98
2022-08-11T16:59:20.555Z,13.62
2022-08-11T17:01:53.299Z,14.07
2022-08-11T17:04:46.817Z,13.74
2022-08-11T17:07:41.834Z,13.93
2022-08-11T17:10:50.970Z,13.54
2022-08-11T17:13:23.796Z,14.18
2022-08-11T17:16:12.535Z,13.77
2022-08-11T17:18:45.469Z,14.36
2022-08-11T17:21:16.067Z,14.26
2022-08-11T17:23:49.948Z,13.87
2022-08-11T17:26:19.380Z,14.14
2022-08-11T17:28:49.794Z,13.96
2022-08-11T17:31:38.139Z,14.20
2022-08-11T17:34:24.705Z,14.14
2022-08-11T17:36:53.772Z,14.02
2022-08-11T17:39:22.409Z,14.02
2022-08-11T17:42:08.603Z,14.39
2022-08-11T17:44:54.449Z,14.29
2022-08-11T17:47:43.624Z,14.15
2022-08-11T17:50:16.586Z,14.39
2022-08-11T17:53:03.694Z,14.26
2022-08-11T17:55:52.143Z,14.20
2022-08-11T17:58:39.112Z,14.53
2022-08-11T18:01:09.193Z,14.53
2022-08-11T18:03:40.044Z,14.37
2022-08-11T18:06:12.675Z,14.61
2022-08-11T18:09:04.702Z,14.48
2022-08-11T18:12:06.524Z,14.50
2022-08-11T18:14:57.832Z,14.39
2022-08-11T18:17:43.185Z,14.53
2022-08-11T18:20:30.009Z,14.53
2022-08-11T18:23:17.027Z,14.42
2022-08-11T18:26:07.292Z,14.44
2022-08-11T18:28:56.558Z,14.66
2022-08-11T18:31:43.514Z,14.60
2022-08-11T18:34:30.383Z,14.71
2022-08-11T18:37:22.775Z,15.00
2022-08-11T18:40:12.387Z,14.78
2022-08-11T18:42:59.288Z,15.01
2022-08-11T18:45:46.345Z,14.70
2022-08-11T18:48:34.209Z,14.70
2022-08-11T18:51:30.897Z,14.75
2022-08-11T18:54:26.238Z,14.89
2022-08-11T18:57:12.962Z,14.87
2022-08-11T18:59:59.148Z,15.14
2022-08-11T19:02:48.705Z,15.09
2022-08-11T19:06:35.402Z,15.11
2022-08-11T19:08:45.862Z,15.28
2022-08-11T19:11:33.394Z,15.13
2022-08-11T19:14:19.554Z,15.38
2022-08-11T19:17:05.838Z,15.41
2022-08-11T19:19:53.418Z,15.38
2022-08-11T19:22:40.042Z,15.37
2022-08-11T19:25:26.538Z,15.64
2022-08-11T19:28:14.089Z,15.28
2022-08-11T19:31:00.176Z,15.47
2022-08-11T19:33:59.799Z,15.50
2022-08-11T19:36:47.094Z,15.52
2022-08-11T19:39:33.107Z,15.95
2022-08-11T19:42:19.153Z,15.70
2022-08-11T19:45:06.175Z,15.75
2022-08-11T19:48:07.987Z,15.78
2022-08-11T19:50:59.370Z,15.83
2022-08-11T19:53:46.151Z,15.89
2022-08-11T19:56:32.705Z,15.73
2022-08-11T19:59:18.785Z,15.92
2022-08-11T20:02:13.539Z,16.02
2022-08-11T20:05:00.346Z,16.15
2022-08-11T20:07:46.286Z,15.98
2022-08-11T20:10:34.996Z,16.08
2022-08-11T20:13:22.157Z,16.11
2022-08-11T20:16:08.766Z,16.12
2022-08-11T20:18:56.594Z,16.10
2022-08-11T20:21:43.757Z,16.37
2022-08-11T20:24:30.441Z,16.21
2022-08-11T20:27:21.996Z,16.39
2022-08-11T20:30:11.362Z,16.35
2022-08-11T20:32:58.169Z,16.41
2022-08-11T20:35:46.174Z,16.10
2022-08-11T20:38:32.374Z,16.49
2022-08-11T20:41:19.412Z,16.42
2022-08-11T20:44:09.081Z,16.49
2022-08-11T20:46:57.605Z,16.60
2022-08-11T20:49:52.579Z,16.47
2022-08-11T20:52:47.442Z,16.50
2022-08-11T21:01:46.677Z,16.80
2022-08-11T21:04:32.386Z,16.91
2022-08-11T21:07:27.514Z,16.87
2022-08-11T21:10:23.715Z,16.78
2022-08-11T21:13:24.988Z,16.73
2022-08-11T21:16:25.385Z,16.71
2022-08-11T21:19:14.272Z,16.82
2022-08-11T21:22:01.565Z,16.88
2022-08-11T21:24:51.357Z,16.98
2022-08-11T21:27:39.366Z,16.99
2022-08-11T21:30:25.803Z,17.05
2022-08-11T21:33:12.023Z,17.04
2022-08-11T21:35:57.600Z,17.25
2022-08-11T21:38:44.288Z,17.08
2022-08-11T21:41:31.327Z,17.51
2022-08-11T21:44:18.851Z,17.45
2022-08-11T21:47:05.408Z,17.34
2022-08-11T21:49:51.264Z,17.53
2022-08-11T21:52:37.466Z,17.60
2022-08-11T21:55:23.417Z,17.36
2022-08-11T21:58:09.140Z,17.31
2022-08-11T22:00:55.941Z,17.69
2022-08-11T22:03:49.666Z,17.45
2022-08-11T22:06:39.038Z,17.49
2022-08-11T22:09:24.620Z,17.68
2022-08-11T22:12:30.047Z,17.51
2022-08-11T22:15:16.353Z,17.65
2022-08-11T22:18:03.388Z,17.91
2022-08-11T22:20:51.032Z,17.79
2022-08-11T22:23:37.367Z,17.66
2022-08-11T22:26:24.510Z,18.07
2022-08-11T22:29:10.712Z,17.80
2022-08-11T22:31:57.875Z,17.94
2022-08-11T22:34:53.394Z,17.88
2022-08-11T22:37:39.882Z,17.89
2022-08-11T22:40:26.208Z,18.23
2022-08-11T22:43:13.721Z,17.94
2022-08-11T22:45:59.215Z,18.01
2022-08-11T22:48:45.044Z,17.93
2022-08-11T22:51:32.457Z,18.34
2022-08-11T22:54:19.730Z,17.92
2022-08-11T22:57:05.811Z,18.39
2022-08-11T22:59:51.892Z,18.09
2022-08-11T23:02:38.119Z,18.44
2022-08-11T23:05:24.775Z,18.42
2022-08-11T23:08:12.055Z,18.30
2022-08-11T23:10:58.038Z,18.38
2022-08-11T23:13:44.221Z,18.36
2022-08-11T23:16:29.710Z,18.70
2022-08-11T23:20:07.365Z,18.63
2022-08-11T23:22:21.544Z,18.90
2022-08-11T23:25:08.466Z,18.73
2022-08-11T23:28:03.436Z,18.74
2022-08-11T23:30:49.529Z,18.80
2022-08-11T23:33:36.697Z,18.77
2022-08-11T23:36:35.948Z,18.87
2022-08-11T23:39:29.885Z,19.06
2022-08-11T23:42:17.235Z,19.23
2022-08-11T23:45:03.198Z,19.15
2022-08-11T23:47:51.066Z,19.21
2022-08-11T23:50:36.681Z,18.79
2022-08-11T23:53:22.291Z,19.11
2022-08-11T23:56:08.133Z,19.21
2022-08-11T23:58:55.536Z,19.24
